createdAt,value
2023-04-10T00:00:57.967Z,5.90
2023-04-10T00:02:01.024Z,6.60
2023-04-10T00:03:04.351Z,6.50
2023-04-10T00:04:07.519Z,7.10
2023-04-10T00:05:11.546Z,7.30
2023-04-10T00:06:14.549Z,7.20
2023-04-10T00:07:17.526Z,7.00
2023-04-10T00:08:23.152Z,6.30
2023-04-10T00:09:26.610Z,7.20
2023-04-10T00:10:31.687Z,6.60
2023-04-10T00:11:34.605Z,7.20
2023-04-10T00:12:40.235Z,6.50
2023-04-10T00:13:43.582Z,6.90
2023-04-10T00:14:46.472Z,7.00
2023-04-10T00:15:50.260Z,7.10
2023-04-10T00:16:53.210Z,7.10
2023-04-10T00:17:56.267Z,7.30
2023-04-10T00:18:59.097Z,7.50
2023-04-10T00:20:02.342Z,7.00
2023-04-10T00:21:06.116Z,7.40
2023-04-10T00:22:08.916Z,7.10
2023-04-10T00:23:11.699Z,7.70
2023-04-10T00:24:14.589Z,7.00
2023-04-10T00:25:17.624Z,7.50
2023-04-10T00:26:21.154Z,8.00
2023-04-10T00:27:24.229Z,7.80
2023-04-10T00:28:27.423Z,7.30
2023-04-10T00:29:30.405Z,7.60
2023-04-10T00:30:33.533Z,7.10
2023-04-10T00:31:36.495Z,8.50
2023-04-10T00:32:39.395Z,6.20
2023-04-10T00:33:42.559Z,7.40
2023-04-10T00:34:45.456Z,7.30
2023-04-10T00:35:48.407Z,7.70
2023-04-10T00:36:51.527Z,8.10
2023-04-10T00:37:56.432Z,7.90
2023-04-10T00:38:59.637Z,8.10
2023-04-10T00:40:03.209Z,7.90
2023-04-10T00:41:06.838Z,8.60
2023-04-10T00:42:10.097Z,8.20
2023-04-10T00:43:13.073Z,8.20
2023-04-10T00:44:16.264Z,8.10
2023-04-10T00:45:19.345Z,7.80
2023-04-10T00:46:22.835Z,8.20
2023-04-10T00:47:27.506Z,7.90
2023-04-10T00:48:30.560Z,8.20
2023-04-10T00:49:34.661Z,8.10
2023-04-10T00:50:37.899Z,7.60
2023-04-10T00:51:41.845Z,8.20
2023-04-10T00:52:44.726Z,8.20
2023-04-10T00:53:48.398Z,8.60
2023-04-10T00:54:51.254Z,7.80
2023-04-10T00:55:56.041Z,8.70
2023-04-10T00:56:59.803Z,8.60
2023-04-10T00:58:02.631Z,9.00
2023-04-10T00:59:07.198Z,9.00
2023-04-10T01:00:10.903Z,8.50
2023-04-10T01:01:14.375Z,8.00
2023-04-10T01:02:17.328Z,8.80
2023-04-10T01:03:21.860Z,9.00
2023-04-10T01:04:28.927Z,9.00
2023-04-10T01:05:56.914Z,8.80
2023-04-10T01:07:10.022Z,8.60
2023-04-10T01:08:33.566Z,8.90
2023-04-10T01:09:48.906Z,7.90
2023-04-10T01:11:00.753Z,8.30
2023-04-10T01:12:18.845Z,8.80
2023-04-10T01:13:36.054Z,8.50
2023-04-10T01:14:42.099Z,9.00
2023-04-10T01:16:02.983Z,8.40
2023-04-10T01:17:12.026Z,8.30
2023-04-10T01:18:22.935Z,9.50
2023-04-10T01:19:38.358Z,8.90
2023-04-10T01:20:42.588Z,8.40
2023-04-10T01:21:46.172Z,9.30
2023-04-10T01:23:03.058Z,9.20
2023-04-10T01:24:18.902Z,8.80
2023-04-10T01:25:46.470Z,8.60
2023-04-10T01:27:11.246Z,9.10
2023-04-10T01:28:30.465Z,8.90
2023-04-10T01:29:36.262Z,9.00
2023-04-10T01:32:18.367Z,8.90
2023-04-10T01:33:26.664Z,9.40
2023-04-10T01:34:39.533Z,9.50
2023-04-10T01:35:47.670Z,8.90
2023-04-10T01:36:56.606Z,9.30
2023-04-10T01:38:02.272Z,11.90
2023-04-10T01:39:06.900Z,12.50
2023-04-10T01:40:14.422Z,10.00
2023-04-10T01:41:20.021Z,11.30
2023-04-10T01:42:25.509Z,9.70
2023-04-10T01:43:31.476Z,10.20
2023-04-10T01:44:38.284Z,9.80
2023-04-10T01:45:43.764Z,9.80
2023-04-10T01:46:49.783Z,10.10
2023-04-10T01:47:53.519Z,9.40
2023-04-10T01:48:59.157Z,9.70
2023-04-10T01:50:04.100Z,10.30
2023-04-10T01:51:11.307Z,9.90
2023-04-10T01:52:15.876Z,10.30
2023-04-10T01:53:24.617Z,10.20
2023-04-10T01:54:28.365Z,10.50
2023-04-10T01:55:32.234Z,10.70
2023-04-10T01:56:38.946Z,10.30
2023-04-10T01:57:42.088Z,10.30
2023-04-10T01:58:45.567Z,10.50
2023-04-10T01:59:50.828Z,10.00
2023-04-10T02:00:53.813Z,10.10
2023-04-10T02:02:01.426Z,10.20
2023-04-10T02:03:04.712Z,10.10
2023-04-10T02:04:07.840Z,9.40
2023-04-10T02:05:11.194Z,10.50
2023-04-10T02:06:41.623Z,9.60
2023-04-10T02:07:57.640Z,10.60
2023-04-10T02:09:12.598Z,9.90
2023-04-10T02:10:22.595Z,10.20
2023-04-10T02:11:51.671Z,9.70
2023-04-10T02:13:05.553Z,10.00
2023-04-10T02:14:12.055Z,10.90
2023-04-10T02:15:21.593Z,10.50
2023-04-10T02:16:25.436Z,10.20
2023-04-10T02:17:31.283Z,11.50
2023-04-10T02:18:35.745Z,10.80
2023-04-10T02:19:39.941Z,10.70
2023-04-10T02:20:43.336Z,10.30
2023-04-10T02:21:49.595Z,9.80
2023-04-10T02:22:54.322Z,11.50
2023-04-10T02:23:58.700Z,10.60
2023-04-10T02:25:04.805Z,11.90
2023-04-10T02:26:11.066Z,10.90
2023-04-10T02:27:14.146Z,10.20
2023-04-10T02:28:16.898Z,11.10
2023-04-10T02:29:20.318Z,10.90
2023-04-10T02:30:24.777Z,10.90
2023-04-10T02:31:28.022Z,11.00
2023-04-10T02:32:33.526Z,10.50
2023-04-10T02:33:36.679Z,10.90
2023-04-10T02:34:39.899Z,11.70
2023-04-10T02:35:42.955Z,11.10
2023-04-10T02:36:46.086Z,10.80
2023-04-10T02:37:50.814Z,10.40
2023-04-10T02:38:53.897Z,11.40
2023-04-10T02:39:58.636Z,10.70
2023-04-10T02:41:02.969Z,11.00
2023-04-10T02:42:05.792Z,11.10
2023-04-10T02:43:08.658Z,10.70
2023-04-10T02:44:11.614Z,10.40
2023-04-10T02:45:14.641Z,9.80
2023-04-10T02:46:18.671Z,9.70
2023-04-10T02:47:22.093Z,9.90
2023-04-10T02:48:25.140Z,10.30
2023-04-10T02:49:31.678Z,10.70
2023-04-10T02:50:35.470Z,10.60
2023-04-10T02:51:38.461Z,10.50
2023-04-10T02:52:42.005Z,10.00
2023-04-10T02:53:44.946Z,10.70
2023-04-10T02:54:59.750Z,11.10
2023-04-10T02:56:03.694Z,10.10
2023-04-10T02:57:06.668Z,9.90
2023-04-10T02:58:09.713Z,11.10
2023-04-10T02:59:13.391Z,10.20
2023-04-10T03:00:16.993Z,11.00
2023-04-10T03:01:40.926Z,10.60
2023-04-10T03:02:44.191Z,10.70
2023-04-10T03:03:51.411Z,10.30
2023-04-10T03:05:02.187Z,11.60
2023-04-10T03:06:06.898Z,11.80
2023-04-10T03:07:11.064Z,11.40
2023-04-10T03:08:14.414Z,10.70
2023-04-10T03:09:17.320Z,10.80
2023-04-10T03:10:20.280Z,9.70
2023-04-10T03:11:23.658Z,11.20
2023-04-10T03:12:26.504Z,10.50
2023-04-10T03:13:29.422Z,10.60
2023-04-10T03:14:32.394Z,9.80
2023-04-10T03:15:35.523Z,10.90
2023-04-10T03:16:38.538Z,11.50
2023-04-10T03:17:41.729Z,10.60
2023-04-10T03:18:45.586Z,10.20
2023-04-10T03:19:48.373Z,10.60
2023-04-10T03:20:51.652Z,10.60
2023-04-10T03:21:55.810Z,10.90
2023-04-10T03:23:01.563Z,9.70
2023-04-10T03:24:04.639Z,9.90
2023-04-10T03:25:08.263Z,10.60
2023-04-10T03:26:11.602Z,9.90
2023-04-10T03:27:14.825Z,9.60
2023-04-10T03:28:17.886Z,10.40
2023-04-10T03:29:20.891Z,9.50
2023-04-10T03:30:23.740Z,9.90
2023-04-10T03:31:27.233Z,9.30
2023-04-10T03:32:32.177Z,9.10
2023-04-10T03:33:36.075Z,10.00
2023-04-10T03:34:38.961Z,9.80
2023-04-10T03:35:42.243Z,10.20
2023-04-10T03:36:45.372Z,10.30
2023-04-10T03:37:48.261Z,10.30
2023-04-10T03:38:52.918Z,9.10
2023-04-10T03:39:56.010Z,10.00
2023-04-10T03:40:59.162Z,8.80
2023-04-10T03:42:03.937Z,9.90
2023-04-10T03:43:06.827Z,9.10
2023-04-10T03:44:09.931Z,8.70
2023-04-10T03:45:13.056Z,9.50
2023-04-10T03:46:16.375Z,9.20
2023-04-10T03:47:20.214Z,9.70
2023-04-10T03:48:28.483Z,8.70
2023-04-10T03:49:31.580Z,10.10
2023-04-10T03:50:39.617Z,10.30
2023-04-10T03:51:42.437Z,9.00
2023-04-10T03:52:45.367Z,8.90
2023-04-10T03:53:51.481Z,10.50
2023-04-10T03:54:54.983Z,10.00
2023-04-10T03:56:01.213Z,9.60
2023-04-10T03:57:04.515Z,8.80
2023-04-10T03:58:07.455Z,10.00
2023-04-10T03:59:11.509Z,10.10
2023-04-10T04:00:16.960Z,9.50
2023-04-10T04:01:26.156Z,8.70
2023-04-10T04:02:38.333Z,8.80
2023-04-10T04:03:42.068Z,9.40
2023-04-10T04:05:04.382Z,8.90
2023-04-10T04:06:38.304Z,8.70
2023-04-10T04:09:13.852Z,8.70
2023-04-10T04:10:40.024Z,9.60
2023-04-10T04:12:00.221Z,8.80
2023-04-10T04:13:29.065Z,8.50
2023-04-10T04:14:45.336Z,9.50
2023-04-10T04:16:00.532Z,9.60
2023-04-10T04:17:18.452Z,9.30
2023-04-10T04:18:39.705Z,8.60
2023-04-10T04:19:54.193Z,8.90
2023-04-10T04:21:12.847Z,8.70
2023-04-10T04:22:47.595Z,8.80
2023-04-10T04:23:50.458Z,9.40
2023-04-10T04:25:11.570Z,8.80
2023-04-10T04:26:33.666Z,9.10
2023-04-10T04:27:49.758Z,9.00
2023-04-10T04:29:18.961Z,8.40
2023-04-10T04:30:38.454Z,10.20
2023-04-10T04:31:48.324Z,9.20
2023-04-10T04:33:10.075Z,9.50
2023-04-10T04:34:32.283Z,9.90
2023-04-10T04:35:58.216Z,9.00
2023-04-10T04:37:15.925Z,8.90
2023-04-10T04:38:39.029Z,9.10
2023-04-10T04:39:48.092Z,9.60
2023-04-10T04:41:09.409Z,9.80
2023-04-10T04:42:31.058Z,8.80
2023-04-10T04:44:04.869Z,9.10
2023-04-10T04:45:34.053Z,8.90
2023-04-10T04:46:55.541Z,10.50
2023-04-10T04:48:04.624Z,10.10
2023-04-10T04:49:46.200Z,9.10
2023-04-10T04:50:49.121Z,9.90
2023-04-10T04:52:12.072Z,10.20
2023-04-10T04:53:18.498Z,9.80
2023-04-10T04:54:40.171Z,10.50
2023-04-10T04:55:58.398Z,10.60
2023-04-10T04:57:14.526Z,11.60
2023-04-10T04:58:40.200Z,11.50
2023-04-10T04:59:52.386Z,11.40
2023-04-10T05:01:13.877Z,10.40
2023-04-10T05:02:31.015Z,11.20
2023-04-10T05:03:57.484Z,10.70
2023-04-10T05:05:30.352Z,10.50
2023-04-10T05:06:53.480Z,10.60
2023-04-10T05:08:26.417Z,11.20
2023-04-10T05:10:08.688Z,11.70
2023-04-10T05:11:58.997Z,11.40
2023-04-10T05:13:22.787Z,10.80
2023-04-10T05:14:45.348Z,10.50
2023-04-10T05:16:08.840Z,11.40
2023-04-10T05:17:17.393Z,11.50
2023-04-10T05:18:39.761Z,10.90
2023-04-10T05:19:54.675Z,10.80
2023-04-10T05:21:21.062Z,10.90
2023-04-10T05:22:42.336Z,10.00
2023-04-10T05:24:10.159Z,10.60
2023-04-10T05:25:24.587Z,11.20
2023-04-10T05:26:42.559Z,10.00
2023-04-10T05:28:01.346Z,10.10
2023-04-10T05:29:23.519Z,9.10
2023-04-10T05:30:52.293Z,8.70
2023-04-10T05:32:24.248Z,9.00
2023-04-10T05:33:37.493Z,9.40
2023-04-10T05:34:58.468Z,9.70
2023-04-10T05:36:11.232Z,8.90
2023-04-10T05:37:28.916Z,9.70
2023-04-10T05:38:36.357Z,9.30
2023-04-10T05:39:50.693Z,9.00
2023-04-10T05:41:16.648Z,9.50
2023-04-10T05:42:35.469Z,9.40
2023-04-10T05:44:00.568Z,9.50
2023-04-10T05:45:11.163Z,9.00
2023-04-10T05:46:34.497Z,9.20
2023-04-10T05:47:58.888Z,9.00
2023-04-10T05:49:24.669Z,8.30
2023-04-10T05:50:37.317Z,9.20
2023-04-10T05:51:50.560Z,7.80
2023-04-10T05:53:05.703Z,8.00
2023-04-10T05:54:20.512Z,7.70
2023-04-10T05:55:56.711Z,7.60
2023-04-10T05:57:18.285Z,7.50
2023-04-10T05:58:21.093Z,7.20
2023-04-10T05:59:46.720Z,6.70
2023-04-10T06:01:15.703Z,6.80
2023-04-10T06:02:28.986Z,6.90
2023-04-10T06:03:32.272Z,6.30
2023-04-10T06:04:37.229Z,6.00
2023-04-10T06:05:41.564Z,5.50
2023-04-10T06:06:44.510Z,6.60
2023-04-10T06:07:47.401Z,6.10
2023-04-10T06:08:50.974Z,5.30
2023-04-10T06:09:53.797Z,5.70
2023-04-10T06:10:57.277Z,6.00
2023-04-10T06:12:01.403Z,6.10
2023-04-10T06:13:04.613Z,7.20
2023-04-10T06:14:07.578Z,5.70
2023-04-10T06:15:17.017Z,5.80
2023-04-10T06:16:20.553Z,6.30
2023-04-10T06:17:25.842Z,5.80
2023-04-10T06:18:29.421Z,6.90
2023-04-10T06:19:32.287Z,5.50
2023-04-10T06:20:35.158Z,5.40
2023-04-10T06:21:37.981Z,5.70
2023-04-10T06:22:41.081Z,5.70
2023-04-10T06:23:44.163Z,5.60
2023-04-10T06:24:47.361Z,5.80
2023-04-10T06:25:50.330Z,5.80
2023-04-10T06:26:54.288Z,5.90
2023-04-10T06:27:57.404Z,6.40
2023-04-10T06:29:01.270Z,6.10
2023-04-10T06:31:07.524Z,6.20
2023-04-10T06:32:11.839Z,5.50
2023-04-10T06:33:16.404Z,5.90
2023-04-10T06:34:20.558Z,5.70
2023-04-10T06:35:32.792Z,5.80
2023-04-10T06:36:36.093Z,6.00
2023-04-10T06:37:41.122Z,6.50
2023-04-10T06:38:44.731Z,5.50
2023-04-10T06:39:48.063Z,6.20
2023-04-10T06:40:50.867Z,5.50
2023-04-10T06:41:53.806Z,5.50
2023-04-10T06:43:05.152Z,5.90
2023-04-10T06:44:14.083Z,5.50
2023-04-10T06:45:16.922Z,5.40
2023-04-10T06:46:20.572Z,4.90
2023-04-10T06:47:23.876Z,4.90
2023-04-10T06:48:27.081Z,7.40
2023-04-10T06:49:29.945Z,7.80
2023-04-10T06:50:33.541Z,7.70
2023-04-10T06:51:36.577Z,5.90
2023-04-10T06:52:39.575Z,6.10
2023-04-10T06:53:42.524Z,5.20
2023-04-10T06:54:45.432Z,5.30
2023-04-10T06:55:48.943Z,4.50
2023-04-10T06:56:51.799Z,4.40
2023-04-10T06:57:56.174Z,4.50
2023-04-10T06:58:59.204Z,4.40
2023-04-10T07:00:02.180Z,4.70
2023-04-10T07:01:05.605Z,4.90
2023-04-10T07:02:08.569Z,5.90
2023-04-10T07:03:11.413Z,5.50
2023-04-10T07:04:14.674Z,4.70
2023-04-10T07:05:17.817Z,5.50
2023-04-10T07:06:21.147Z,4.80
2023-04-10T07:07:24.229Z,5.00
2023-04-10T07:08:27.097Z,5.10
2023-04-10T07:09:30.814Z,4.50
2023-04-10T07:10:33.809Z,5.00
2023-04-10T07:11:36.842Z,4.90
2023-04-10T07:12:40.007Z,4.50
2023-04-10T07:13:42.940Z,4.00
2023-04-10T07:14:46.239Z,4.40
2023-04-10T07:15:49.264Z,4.60
2023-04-10T07:16:54.137Z,4.90
2023-04-10T07:17:57.086Z,5.10
2023-04-10T07:19:00.020Z,4.80
2023-04-10T07:20:03.455Z,4.70
2023-04-10T07:21:13.205Z,4.20
2023-04-10T07:22:16.885Z,4.20
2023-04-10T07:23:20.526Z,4.80
2023-04-10T07:24:23.656Z,3.60
2023-04-10T07:25:26.425Z,4.30
2023-04-10T07:26:29.283Z,5.10
2023-04-10T07:27:32.322Z,8.00
2023-04-10T07:28:35.240Z,8.40
2023-04-10T07:29:38.088Z,5.80
2023-04-10T07:30:41.519Z,4.70
2023-04-10T07:31:44.750Z,4.90
2023-04-10T07:32:48.517Z,3.90
2023-04-10T07:33:51.953Z,4.10
2023-04-10T07:34:54.850Z,4.30
2023-04-10T07:35:57.839Z,4.00
2023-04-10T07:37:00.877Z,4.50
2023-04-10T07:38:04.753Z,4.20
2023-04-10T07:39:07.676Z,4.60
2023-04-10T07:40:11.278Z,4.60
2023-04-10T07:41:14.448Z,5.80
2023-04-10T07:42:17.345Z,4.90
2023-04-10T07:43:21.561Z,4.50
2023-04-10T07:44:26.813Z,4.50
2023-04-10T07:45:29.788Z,4.10
2023-04-10T07:46:32.733Z,5.00
2023-04-10T07:47:35.902Z,4.50
2023-04-10T07:48:38.929Z,4.60
2023-04-10T07:49:42.325Z,4.30
2023-04-10T07:50:45.376Z,4.40
2023-04-10T07:51:48.736Z,4.50
2023-04-10T07:52:51.648Z,3.90
2023-04-10T07:53:54.538Z,3.70
2023-04-10T07:54:57.450Z,4.10
2023-04-10T07:56:00.246Z,3.80
2023-04-10T07:57:03.029Z,4.00
2023-04-10T07:58:06.472Z,4.10
2023-04-10T07:59:09.503Z,4.50
2023-04-10T08:00:13.199Z,4.60
2023-04-10T08:01:15.959Z,5.00
2023-04-10T08:02:18.975Z,4.80
2023-04-10T08:03:22.967Z,4.90
2023-04-10T08:04:26.865Z,4.80
2023-04-10T08:05:29.888Z,4.50
2023-04-10T08:06:32.846Z,4.40
2023-04-10T08:07:36.471Z,5.30
2023-04-10T08:08:41.205Z,4.90
2023-04-10T08:09:44.375Z,4.90
2023-04-10T08:10:47.206Z,5.20
2023-04-10T08:11:50.190Z,4.90
2023-04-10T08:12:53.089Z,5.20
2023-04-10T08:13:58.298Z,4.80
2023-04-10T08:15:02.024Z,5.20
2023-04-10T08:16:05.232Z,5.40
2023-04-10T08:17:14.610Z,5.10
2023-04-10T08:18:17.934Z,4.70
2023-04-10T08:19:20.858Z,5.00
2023-04-10T08:20:24.088Z,5.20
2023-04-10T08:21:29.937Z,4.70
2023-04-10T08:22:32.946Z,4.40
2023-04-10T08:23:35.948Z,5.00
2023-04-10T08:24:38.947Z,4.60
2023-04-10T08:25:41.911Z,4.40
2023-04-10T08:26:44.717Z,4.10
2023-04-10T08:27:47.587Z,4.50
2023-04-10T08:28:52.730Z,4.20
2023-04-10T08:29:56.717Z,4.30
2023-04-10T08:30:59.874Z,4.30
2023-04-10T08:32:02.849Z,5.30
2023-04-10T08:33:05.887Z,4.70
2023-04-10T08:34:08.960Z,4.20
2023-04-10T08:35:11.894Z,4.30
2023-04-10T08:36:17.675Z,4.30
2023-04-10T08:37:21.947Z,5.30
2023-04-10T08:38:27.651Z,4.60
2023-04-10T08:39:30.712Z,5.00
2023-04-10T08:40:37.572Z,4.90
2023-04-10T08:41:41.702Z,4.60
2023-04-10T08:42:44.646Z,4.40
2023-04-10T08:43:49.588Z,4.30
2023-04-10T08:44:53.119Z,4.70
2023-04-10T08:45:56.335Z,4.20
2023-04-10T08:47:01.391Z,4.70
2023-04-10T08:48:07.893Z,5.80
2023-04-10T08:49:39.100Z,5.40
2023-04-10T08:50:43.691Z,4.30
2023-04-10T08:51:52.005Z,3.70
2023-04-10T08:53:00.327Z,4.00
2023-04-10T08:54:10.777Z,6.20
2023-04-10T08:56:18.753Z,4.40
2023-04-10T08:57:24.947Z,4.20
2023-04-10T08:58:28.804Z,5.00
2023-04-10T08:59:31.934Z,4.10
2023-04-10T09:00:38.654Z,3.90
2023-04-10T09:01:42.041Z,4.70
2023-04-10T09:02:45.507Z,4.10
2023-04-10T09:03:48.993Z,3.90
2023-04-10T09:04:56.302Z,3.40
2023-04-10T09:06:04.219Z,3.70
2023-04-10T09:07:07.067Z,4.20
2023-04-10T09:08:12.234Z,4.00
2023-04-10T09:09:15.485Z,3.90
2023-04-10T09:10:18.370Z,4.00
2023-04-10T09:11:21.491Z,4.00
2023-04-10T09:12:24.357Z,4.20
2023-04-10T09:13:41.962Z,3.70
2023-04-10T09:14:45.087Z,4.10
2023-04-10T09:16:00.621Z,3.60
2023-04-10T09:17:17.205Z,3.40
2023-04-10T09:18:20.164Z,3.50
2023-04-10T09:19:30.669Z,3.50
2023-04-10T09:20:34.458Z,3.20
2023-04-10T09:21:37.220Z,3.20
2023-04-10T09:22:40.109Z,2.90
2023-04-10T09:23:44.890Z,3.60
2023-04-10T09:24:48.298Z,2.90
2023-04-10T09:25:51.664Z,2.90
2023-04-10T09:26:55.380Z,3.40
2023-04-10T09:28:03.828Z,3.00
2023-04-10T09:29:07.813Z,3.60
2023-04-10T09:30:11.096Z,3.40
2023-04-10T09:31:35.658Z,3.40
2023-04-10T09:32:49.033Z,3.60
2023-04-10T09:34:07.808Z,3.60
2023-04-10T09:35:12.633Z,5.50
2023-04-10T09:36:16.122Z,7.40
2023-04-10T09:37:21.007Z,6.00
2023-04-10T09:38:23.977Z,5.30
2023-04-10T09:39:41.137Z,4.30
2023-04-10T09:40:45.655Z,4.10
2023-04-10T09:41:53.102Z,4.30
2023-04-10T09:42:57.289Z,4.20
2023-04-10T09:44:12.028Z,3.60
2023-04-10T09:45:16.652Z,4.00
2023-04-10T09:46:28.811Z,4.00
2023-04-10T09:47:33.280Z,3.90
2023-04-10T09:48:36.438Z,3.60
2023-04-10T09:49:52.579Z,4.20
2023-04-10T09:50:55.779Z,3.80
2023-04-10T09:51:58.693Z,3.60
2023-04-10T09:53:01.561Z,3.90
2023-04-10T09:54:04.644Z,3.80
2023-04-10T09:55:08.656Z,3.70
2023-04-10T09:56:13.110Z,3.90
2023-04-10T09:57:20.252Z,3.90
2023-04-10T09:58:26.549Z,3.70
2023-04-10T09:59:29.750Z,4.70
2023-04-10T10:00:44.699Z,4.60
2023-04-10T10:01:47.645Z,4.00
2023-04-10T10:02:52.408Z,3.70
2023-04-10T10:03:58.990Z,3.90
2023-04-10T10:05:05.602Z,4.40
2023-04-10T10:06:09.816Z,4.30
2023-04-10T10:07:18.553Z,4.20
2023-04-10T10:08:22.428Z,3.60
2023-04-10T10:09:27.688Z,3.90
2023-04-10T10:10:33.026Z,4.40
2023-04-10T10:11:36.490Z,10.10
2023-04-10T10:12:59.524Z,7.10
2023-04-10T10:14:06.540Z,5.90
2023-04-10T10:15:19.786Z,5.00
2023-04-10T10:16:37.410Z,5.60
2023-04-10T10:17:55.864Z,4.40
2023-04-10T10:19:22.153Z,4.20
2023-04-10T10:20:26.541Z,4.00
2023-04-10T10:21:30.700Z,4.50
2023-04-10T10:22:35.238Z,5.00
2023-04-10T10:23:38.720Z,5.40
2023-04-10T10:24:47.569Z,5.90
2023-04-10T10:25:51.431Z,5.90
2023-04-10T10:26:57.359Z,5.50
2023-04-10T10:28:04.129Z,6.00
2023-04-10T10:29:11.332Z,5.30
2023-04-10T10:30:28.358Z,5.90
2023-04-10T10:31:37.605Z,5.60
2023-04-10T10:32:41.468Z,5.30
2023-04-10T10:33:47.160Z,4.90
2023-04-10T10:34:53.026Z,5.10
2023-04-10T10:36:00.236Z,5.20
2023-04-10T10:37:04.730Z,4.70
2023-04-10T10:38:08.362Z,4.70
2023-04-10T10:39:42.436Z,4.60
2023-04-10T10:40:54.845Z,4.80
2023-04-10T10:42:48.649Z,4.60
2023-04-10T10:44:04.846Z,4.20
2023-04-10T10:45:17.570Z,4.10
2023-04-10T10:46:47.546Z,6.80
2023-04-10T10:47:54.977Z,4.20
2023-04-10T10:48:59.470Z,4.00
2023-04-10T10:50:03.946Z,4.40
2023-04-10T10:51:07.159Z,4.30
2023-04-10T10:52:10.006Z,4.70
2023-04-10T10:53:31.612Z,4.10
2023-04-10T10:54:36.603Z,4.60
2023-04-10T10:55:41.881Z,4.60
2023-04-10T10:56:44.672Z,4.60
2023-04-10T10:57:48.481Z,4.50
2023-04-10T10:58:54.496Z,4.80
2023-04-10T10:59:57.720Z,5.00
2023-04-10T11:01:00.518Z,4.80
2023-04-10T11:02:16.947Z,4.90
2023-04-10T11:03:20.058Z,4.50
2023-04-10T11:04:43.720Z,4.70
2023-04-10T11:05:57.307Z,4.80
2023-04-10T11:07:00.222Z,5.00
2023-04-10T11:08:03.368Z,5.10
2023-04-10T11:09:06.450Z,4.10
2023-04-10T11:10:09.497Z,4.40
2023-04-10T11:11:16.051Z,4.90
2023-04-10T11:12:25.585Z,4.70
2023-04-10T11:13:29.025Z,4.70
2023-04-10T11:14:33.705Z,4.80
2023-04-10T11:15:37.150Z,4.60
2023-04-10T11:16:41.583Z,10.90
2023-04-10T11:17:52.405Z,6.10
2023-04-10T11:19:06.322Z,5.00
2023-04-10T11:20:27.512Z,4.70
2023-04-10T11:21:31.596Z,4.80
2023-04-10T11:23:06.628Z,4.40
2023-04-10T11:24:09.981Z,4.80
2023-04-10T11:25:12.816Z,4.80
2023-04-10T11:26:42.801Z,4.60
2023-04-10T11:27:49.229Z,3.90
2023-04-10T11:28:52.312Z,4.40
2023-04-10T11:29:56.197Z,4.20
2023-04-10T11:31:20.035Z,6.00
2023-04-10T11:32:23.042Z,5.50
2023-04-10T11:33:26.019Z,4.90
2023-04-10T11:34:31.015Z,4.30
2023-04-10T11:35:34.177Z,5.00
2023-04-10T11:36:43.128Z,4.50
2023-04-10T11:37:46.295Z,4.20
2023-04-10T11:38:59.036Z,4.40
2023-04-10T11:40:06.457Z,4.20
2023-04-10T11:41:09.664Z,5.00
2023-04-10T11:42:12.948Z,4.80
2023-04-10T11:43:16.037Z,4.60
2023-04-10T11:44:39.658Z,5.00
2023-04-10T11:45:42.771Z,4.30
2023-04-10T11:46:47.488Z,5.00
2023-04-10T11:47:52.252Z,4.30
2023-04-10T11:49:03.582Z,4.50
2023-04-10T11:50:08.188Z,4.70
2023-04-10T11:51:13.469Z,4.20
2023-04-10T11:52:25.815Z,4.30
2023-04-10T11:53:30.336Z,4.10
2023-04-10T11:54:33.271Z,4.40
2023-04-10T11:55:39.815Z,4.50
2023-04-10T11:56:45.839Z,4.40
2023-04-10T11:57:49.026Z,3.80
2023-04-10T11:58:54.434Z,3.30
2023-04-10T11:59:59.134Z,3.50
2023-04-10T12:01:05.867Z,3.40
2023-04-10T12:02:11.803Z,4.10
2023-04-10T12:03:14.851Z,3.70
2023-04-10T12:04:19.730Z,3.80
2023-04-10T12:05:22.734Z,3.70
2023-04-10T12:06:26.113Z,4.10
2023-04-10T12:07:30.820Z,4.00
2023-04-10T12:08:38.019Z,4.00
2023-04-10T12:09:40.966Z,4.30
2023-04-10T12:10:47.494Z,4.00
2023-04-10T12:12:03.738Z,3.50
2023-04-10T12:13:07.675Z,3.70
2023-04-10T12:14:10.791Z,3.70
2023-04-10T12:15:30.814Z,3.80
2023-04-10T12:16:33.966Z,3.90
2023-04-10T12:17:37.893Z,4.00
2023-04-10T12:18:41.233Z,3.60
2023-04-10T12:19:44.329Z,4.00
2023-04-10T12:20:48.061Z,3.70
2023-04-10T12:21:51.631Z,4.50
2023-04-10T12:22:56.745Z,4.10
2023-04-10T12:23:59.632Z,4.50
2023-04-10T12:25:02.621Z,3.80
2023-04-10T12:26:16.465Z,4.20
2023-04-10T12:27:28.683Z,3.80
2023-04-10T12:28:32.053Z,3.70
2023-04-10T12:29:34.908Z,4.50
2023-04-10T12:30:37.882Z,3.90
2023-04-10T12:31:41.073Z,4.10
2023-04-10T12:32:52.505Z,4.00
2023-04-10T12:33:57.985Z,3.70
2023-04-10T12:35:03.627Z,3.60
2023-04-10T12:36:06.806Z,3.70
2023-04-10T12:37:12.523Z,4.10
2023-04-10T12:38:15.784Z,3.70
2023-04-10T12:39:24.237Z,3.90
2023-04-10T12:40:27.655Z,4.00
2023-04-10T12:41:32.522Z,3.70
2023-04-10T12:42:41.081Z,3.80
2023-04-10T12:43:44.886Z,4.60
2023-04-10T12:44:52.733Z,4.10
2023-04-10T12:45:56.369Z,3.70
2023-04-10T12:47:01.736Z,4.00
2023-04-10T12:48:04.730Z,4.30
2023-04-10T12:49:15.498Z,4.00
2023-04-10T12:50:21.041Z,4.20
2023-04-10T12:51:47.161Z,3.50
2023-04-10T12:53:11.801Z,3.70
2023-04-10T12:54:41.200Z,4.10
2023-04-10T12:56:01.216Z,4.00
2023-04-10T12:57:04.628Z,3.80
2023-04-10T12:58:18.540Z,4.30
2023-04-10T12:59:22.977Z,4.50
2023-04-10T13:00:26.575Z,3.60
2023-04-10T13:01:29.411Z,4.30
2023-04-10T13:02:32.536Z,4.00
2023-04-10T13:03:37.769Z,4.10
2023-04-10T13:04:41.269Z,3.80
2023-04-10T13:05:44.654Z,4.40
2023-04-10T13:06:49.364Z,4.90
2023-04-10T13:07:53.000Z,4.90
2023-04-10T13:08:56.672Z,5.10
2023-04-10T13:10:00.887Z,4.60
2023-04-10T13:11:03.806Z,4.50
2023-04-10T13:12:06.894Z,3.70
2023-04-10T13:13:12.077Z,4.30
2023-04-10T13:14:14.883Z,4.40
2023-04-10T13:15:17.822Z,4.50
2023-04-10T13:16:20.870Z,5.00
2023-04-10T13:17:25.446Z,5.00
2023-04-10T13:18:28.412Z,4.30
2023-04-10T13:19:31.853Z,3.60
2023-04-10T13:20:36.222Z,4.70
2023-04-10T13:21:39.138Z,4.60
2023-04-10T13:22:42.433Z,4.60
2023-04-10T13:23:47.085Z,5.40
2023-04-10T13:24:50.003Z,4.40
2023-04-10T13:25:53.758Z,4.10
2023-04-10T13:26:58.522Z,4.00
2023-04-10T13:28:01.812Z,3.90
2023-04-10T13:29:04.915Z,4.50
2023-04-10T13:30:08.355Z,4.00
2023-04-10T13:31:11.222Z,3.70
2023-04-10T13:32:14.142Z,3.50
2023-04-10T13:33:17.430Z,3.80
2023-04-10T13:34:20.284Z,3.60
2023-04-10T13:35:23.377Z,3.60
2023-04-10T13:36:26.820Z,3.90
2023-04-10T13:37:29.841Z,4.00
2023-04-10T13:38:32.715Z,4.10
2023-04-10T13:39:35.880Z,3.90
2023-04-10T13:40:39.225Z,4.40
2023-04-10T13:41:42.110Z,4.20
2023-04-10T13:42:44.825Z,4.20
2023-04-10T13:43:47.931Z,4.00
2023-04-10T13:44:50.735Z,4.10
2023-04-10T13:45:53.528Z,4.30
2023-04-10T13:46:58.110Z,3.80
2023-04-10T13:48:01.121Z,4.20
2023-04-10T13:49:04.198Z,3.50
2023-04-10T13:50:07.918Z,3.70
2023-04-10T13:51:10.884Z,4.10
2023-04-10T13:52:13.712Z,3.80
2023-04-10T13:53:16.741Z,4.00
2023-04-10T13:54:20.197Z,5.50
2023-04-10T13:55:23.062Z,3.90
2023-04-10T13:56:26.059Z,4.10
2023-04-10T13:57:28.973Z,4.10
2023-04-10T13:58:34.333Z,4.40
2023-04-10T13:59:37.599Z,4.20
2023-04-10T14:00:42.978Z,4.10
2023-04-10T14:01:45.917Z,3.80
2023-04-10T14:02:48.838Z,3.70
2023-04-10T14:03:51.963Z,3.80
2023-04-10T14:04:55.604Z,3.60
2023-04-10T14:05:58.438Z,3.70
2023-04-10T14:07:02.209Z,4.00
2023-04-10T14:08:05.781Z,3.70
2023-04-10T14:09:09.269Z,3.80
2023-04-10T14:10:12.385Z,3.60
2023-04-10T14:11:15.288Z,3.90
2023-04-10T14:12:19.388Z,4.20
2023-04-10T14:13:22.333Z,3.40
2023-04-10T14:14:25.284Z,4.30
2023-04-10T14:15:28.609Z,3.90
2023-04-10T14:16:31.508Z,3.90
2023-04-10T14:17:34.964Z,3.60
2023-04-10T14:18:37.804Z,4.30
2023-04-10T14:19:42.168Z,3.70
2023-04-10T14:20:45.276Z,3.20
2023-04-10T14:21:48.126Z,4.60
2023-04-10T14:22:51.060Z,3.40
2023-04-10T14:23:53.890Z,3.60
2023-04-10T14:25:09.259Z,3.60
2023-04-10T14:26:15.360Z,3.30
2023-04-10T14:27:18.310Z,3.60
2023-04-10T14:28:21.254Z,3.40
2023-04-10T14:29:36.340Z,3.40
2023-04-10T14:30:40.853Z,3.70
2023-04-10T14:31:56.681Z,3.70
2023-04-10T14:33:00.617Z,3.90
2023-04-10T14:34:03.650Z,3.90
2023-04-10T14:35:07.007Z,3.70
2023-04-10T14:36:10.084Z,3.80
2023-04-10T14:37:15.283Z,3.50
2023-04-10T14:38:18.426Z,3.70
2023-04-10T14:39:25.270Z,4.20
2023-04-10T14:40:28.107Z,3.90
2023-04-10T14:41:31.147Z,3.60
2023-04-10T14:42:33.981Z,4.00
2023-04-10T14:43:37.932Z,3.90
2023-04-10T14:44:41.158Z,3.80
2023-04-10T14:45:44.891Z,4.00
2023-04-10T14:46:47.805Z,3.90
2023-04-10T14:47:50.784Z,3.50
2023-04-10T14:48:53.695Z,4.10
2023-04-10T14:49:56.785Z,4.20
2023-04-10T14:51:01.421Z,3.90
2023-04-10T14:52:04.393Z,4.20
2023-04-10T14:53:10.014Z,4.20
2023-04-10T14:54:13.080Z,4.00
2023-04-10T14:55:16.371Z,4.40
2023-04-10T14:56:19.202Z,4.10
2023-04-10T14:57:21.994Z,4.90